sensor_id;sensor_type;location;lat;lon;timestamp;P1;durP1;ratioP1;P2;durP2;ratioP2
21519;SDS011;10921;53.614;9.882;2022-08-01T00:00:01;47.67;;;43.28;;
21519;SDS011;10921;53.614;9.882;2022-08-01T00:02:29;46.72;;;42.42;;
21519;SDS011;10921;53.614;9.882;2022-08-01T00:04:57;47.75;;;43.22;;
21519;SDS011;10921;53.614;9.882;2022-08-01T00:07:24;49.25;;;44.60;;
21519;SDS011;10921;53.614;9.882;2022-08-01T00:09:50;48.28;;;43.60;;
21519;SDS011;10921;53.614;9.882;2022-08-01T00:12:17;48.05;;;43.50;;
21519;SDS011;10921;53.614;9.882;2022-08-01T00:14:43;47.53;;;42.83;;
21519;SDS011;10921;53.614;9.882;2022-08-01T00:17:10;47.90;;;43.08;;
21519;SDS011;10921;53.614;9.882;2022-08-01T00:19:36;45.53;;;41.28;;
21519;SDS011;10921;53.614;9.882;2022-08-01T00:22:03;47.63;;;43.22;;
21519;SDS011;10921;53.614;9.882;2022-08-01T00:24:30;48.00;;;43.30;;
21519;SDS011;10921;53.614;9.882;2022-08-01T00:26:56;47.13;;;42.55;;
21519;SDS011;10921;53.614;9.882;2022-08-01T00:29:23;48.50;;;43.53;;
21519;SDS011;10921;53.614;9.882;2022-08-01T00:32:09;47.28;;;42.85;;
21519;SDS011;10921;53.614;9.882;2022-08-01T00:34:36;48.63;;;43.92;;
21519;SDS011;10921;53.614;9.882;2022-08-01T00:37:02;48.80;;;44.17;;
21519;SDS011;10921;53.614;9.882;2022-08-01T00:39:28;48.70;;;43.90;;
21519;SDS011;10921;53.614;9.882;2022-08-01T00:41:55;48.55;;;43.78;;
21519;SDS011;10921;53.614;9.882;2022-08-01T00:44:27;47.90;;;43.00;;
21519;SDS011;10921;53.614;9.882;2022-08-01T00:46:53;48.45;;;43.78;;
21519;SDS011;10921;53.614;9.882;2022-08-01T00:49:20;48.67;;;43.92;;
21519;SDS011;10921;53.614;9.882;2022-08-01T00:51:46;46.75;;;42.33;;
21519;SDS011;10921;53.614;9.882;2022-08-01T00:54:13;48.25;;;43.50;;
21519;SDS011;10921;53.614;9.882;2022-08-01T00:56:42;47.17;;;41.50;;
21519;SDS011;10921;53.614;9.882;2022-08-01T00:59:09;44.60;;;40.50;;
21519;SDS011;10921;53.614;9.882;2022-08-01T01:01:39;43.63;;;39.38;;
21519;SDS011;10921;53.614;9.882;2022-08-01T01:04:11;44.33;;;40.40;;
21519;SDS011;10921;53.614;9.882;2022-08-01T01:09:30;43.75;;;39.70;;
21519;SDS011;10921;53.614;9.882;2022-08-01T01:15:08;42.10;;;38.28;;
21519;SDS011;10921;53.614;9.882;2022-08-01T01:17:43;44.67;;;40.40;;
21519;SDS011;10921;53.614;9.882;2022-08-01T01:20:25;44.65;;;40.25;;
21519;SDS011;10921;53.614;9.882;2022-08-01T01:23:21;44.30;;;40.20;;
21519;SDS011;10921;53.614;9.882;2022-08-01T01:26:25;45.17;;;40.90;;
21519;SDS011;10921;53.614;9.882;2022-08-01T01:29:04;47.40;;;42.65;;
21519;SDS011;10921;53.614;9.882;2022-08-01T01:31:52;48.00;;;43.20;;
21519;SDS011;10921;53.614;9.882;2022-08-01T01:34:33;47.55;;;42.70;;
21519;SDS011;10921;53.614;9.882;2022-08-01T01:37:02;48.53;;;43.40;;
21519;SDS011;10921;53.614;9.882;2022-08-01T01:41:59;49.08;;;44.00;;
21519;SDS011;10921;53.614;9.882;2022-08-01T01:44:28;48.50;;;43.60;;
21519;SDS011;10921;53.614;9.882;2022-08-01T01:46:56;49.25;;;44.05;;
21519;SDS011;10921;53.614;9.882;2022-08-01T01:49:24;47.95;;;42.97;;
21519;SDS011;10921;53.614;9.882;2022-08-01T01:51:53;50.85;;;44.50;;
21519;SDS011;10921;53.614;9.882;2022-08-01T01:54:29;45.95;;;41.28;;
21519;SDS011;10921;53.614;9.882;2022-08-01T01:56:59;48.17;;;43.42;;
21519;SDS011;10921;53.614;9.882;2022-08-01T01:59:28;49.53;;;44.53;;
21519;SDS011;10921;53.614;9.882;2022-08-01T02:01:58;46.83;;;41.97;;
21519;SDS011;10921;53.614;9.882;2022-08-01T02:04:31;46.17;;;41.22;;
21519;SDS011;10921;53.614;9.882;2022-08-01T02:09:29;46.33;;;41.03;;
21519;SDS011;10921;53.614;9.882;2022-08-01T02:11:57;49.15;;;39.75;;
21519;SDS011;10921;53.614;9.882;2022-08-01T02:14:39;45.08;;;39.90;;
21519;SDS011;10921;53.614;9.882;2022-08-01T02:17:06;48.45;;;40.13;;
21519;SDS011;10921;53.614;9.882;2022-08-01T02:19:38;45.95;;;40.00;;
21519;SDS011;10921;53.614;9.882;2022-08-01T02:22:14;44.25;;;38.67;;
21519;SDS011;10921;53.614;9.882;2022-08-01T02:24:50;42.47;;;38.10;;
21519;SDS011;10921;53.614;9.882;2022-08-01T02:27:23;43.72;;;39.00;;
21519;SDS011;10921;53.614;9.882;2022-08-01T02:32:53;41.97;;;37.63;;
21519;SDS011;10921;53.614;9.882;2022-08-01T02:35:25;44.75;;;37.38;;
21519;SDS011;10921;53.614;9.882;2022-08-01T02:37:55;42.90;;;38.10;;
21519;SDS011;10921;53.614;9.882;2022-08-01T02:40:24;48.33;;;39.00;;
21519;SDS011;10921;53.614;9.882;2022-08-01T02:42:54;44.40;;;37.85;;
21519;SDS011;10921;53.614;9.882;2022-08-01T02:45:24;42.90;;;37.58;;
21519;SDS011;10921;53.614;9.882;2022-08-01T02:47:54;42.40;;;37.80;;
21519;SDS011;10921;53.614;9.882;2022-08-01T02:50:23;41.33;;;36.90;;
21519;SDS011;10921;53.614;9.882;2022-08-01T02:52:52;43.10;;;38.55;;
21519;SDS011;10921;53.614;9.882;2022-08-01T02:55:21;42.70;;;38.20;;
21519;SDS011;10921;53.614;9.882;2022-08-01T02:57:49;44.30;;;38.75;;
21519;SDS011;10921;53.614;9.882;2022-08-01T03:00:26;41.70;;;37.33;;
21519;SDS011;10921;53.614;9.882;2022-08-01T03:02:54;41.15;;;37.25;;
21519;SDS011;10921;53.614;9.882;2022-08-01T03:05:23;42.60;;;38.05;;
21519;SDS011;10921;53.614;9.882;2022-08-01T03:07:51;43.25;;;38.75;;
21519;SDS011;10921;53.614;9.882;2022-08-01T03:10:19;42.88;;;38.45;;
21519;SDS011;10921;53.614;9.882;2022-08-01T03:12:46;42.53;;;38.22;;
21519;SDS011;10921;53.614;9.882;2022-08-01T03:17:44;43.40;;;38.95;;
21519;SDS011;10921;53.614;9.882;2022-08-01T03:20:13;42.90;;;38.88;;
21519;SDS011;10921;53.614;9.882;2022-08-01T03:22:41;43.58;;;39.10;;
21519;SDS011;10921;53.614;9.882;2022-08-01T03:25:10;44.25;;;39.88;;
21519;SDS011;10921;53.614;9.882;2022-08-01T03:27:38;44.55;;;40.15;;
21519;SDS011;10921;53.614;9.882;2022-08-01T03:30:08;46.00;;;41.05;;
21519;SDS011;10921;53.614;9.882;2022-08-01T03:32:36;43.20;;;38.70;;
21519;SDS011;10921;53.614;9.882;2022-08-01T03:35:03;44.22;;;39.58;;
21519;SDS011;10921;53.614;9.882;2022-08-01T03:37:46;42.20;;;37.85;;
21519;SDS011;10921;53.614;9.882;2022-08-01T03:43:32;39.70;;;36.13;;
21519;SDS011;10921;53.614;9.882;2022-08-01T03:46:11;37.42;;;33.92;;
21519;SDS011;10921;53.614;9.882;2022-08-01T03:48:45;37.58;;;34.33;;
21519;SDS011;10921;53.614;9.882;2022-08-01T03:51:14;38.05;;;34.58;;
21519;SDS011;10921;53.614;9.882;2022-08-01T03:53:44;38.28;;;34.70;;
21519;SDS011;10921;53.614;9.882;2022-08-01T03:56:13;37.88;;;33.97;;
21519;SDS011;10921;53.614;9.882;2022-08-01T03:58:45;38.08;;;34.47;;
21519;SDS011;10921;53.614;9.882;2022-08-01T04:01:15;38.30;;;34.80;;
21519;SDS011;10921;53.614;9.882;2022-08-01T04:03:43;37.08;;;33.53;;
21519;SDS011;10921;53.614;9.882;2022-08-01T04:06:10;39.33;;;35.40;;
21519;SDS011;10921;53.614;9.882;2022-08-01T04:08:40;36.28;;;32.97;;
21519;SDS011;10921;53.614;9.882;2022-08-01T04:11:07;38.15;;;34.53;;
21519;SDS011;10921;53.614;9.882;2022-08-01T04:13:35;38.85;;;35.15;;
21519;SDS011;10921;53.614;9.882;2022-08-01T04:16:03;39.45;;;35.78;;
21519;SDS011;10921;53.614;9.882;2022-08-01T04:18:30;38.58;;;34.50;;
21519;SDS011;10921;53.614;9.882;2022-08-01T04:20:58;36.53;;;33.33;;
21519;SDS011;10921;53.614;9.882;2022-08-01T04:23:24;37.20;;;33.65;;
21519;SDS011;10921;53.614;9.882;2022-08-01T04:25:53;35.88;;;32.53;;
21519;SDS011;10921;53.614;9.882;2022-08-01T04:28:22;35.88;;;32.75;;
21519;SDS011;10921;53.614;9.882;2022-08-01T04:30:51;35.05;;;31.95;;
21519;SDS011;10921;53.614;9.882;2022-08-01T04:33:26;35.40;;;31.75;;
21519;SDS011;10921;53.614;9.882;2022-08-01T04:35:55;34.42;;;31.33;;
21519;SDS011;10921;53.614;9.882;2022-08-01T04:38:30;34.40;;;31.25;;
21519;SDS011;10921;53.614;9.882;2022-08-01T04:40:58;34.72;;;31.60;;
21519;SDS011;10921;53.614;9.882;2022-08-01T04:43:35;33.75;;;30.85;;
21519;SDS011;10921;53.614;9.882;2022-08-01T04:46:02;34.08;;;30.88;;
21519;SDS011;10921;53.614;9.882;2022-08-01T04:48:30;34.13;;;30.85;;
21519;SDS011;10921;53.614;9.882;2022-08-01T04:50:58;33.97;;;30.35;;
21519;SDS011;10921;53.614;9.882;2022-08-01T04:53:25;32.30;;;29.38;;
21519;SDS011;10921;53.614;9.882;2022-08-01T04:55:52;32.72;;;29.48;;
21519;SDS011;10921;53.614;9.882;2022-08-01T04:58:19;32.90;;;29.70;;
21519;SDS011;10921;53.614;9.882;2022-08-01T05:00:46;32.40;;;29.40;;
21519;SDS011;10921;53.614;9.882;2022-08-01T05:03:13;32.42;;;29.33;;
21519;SDS011;10921;53.614;9.882;2022-08-01T05:05:39;32.60;;;29.48;;
21519;SDS011;10921;53.614;9.882;2022-08-01T05:08:06;32.42;;;29.25;;
21519;SDS011;10921;53.614;9.882;2022-08-01T05:10:32;31.85;;;28.85;;
21519;SDS011;10921;53.614;9.882;2022-08-01T05:13:00;32.45;;;29.25;;
21519;SDS011;10921;53.614;9.882;2022-08-01T05:15:26;32.95;;;29.60;;
21519;SDS011;10921;53.614;9.882;2022-08-01T05:17:53;33.42;;;30.15;;
21519;SDS011;10921;53.614;9.882;2022-08-01T05:20:20;34.83;;;31.30;;
21519;SDS011;10921;53.614;9.882;2022-08-01T05:22:47;33.75;;;30.45;;
21519;SDS011;10921;53.614;9.882;2022-08-01T05:25:13;33.92;;;30.73;;
21519;SDS011;10921;53.614;9.882;2022-08-01T05:27:45;35.15;;;31.65;;
21519;SDS011;10921;53.614;9.882;2022-08-01T05:30:14;35.75;;;32.35;;
21519;SDS011;10921;53.614;9.882;2022-08-01T05:32:40;37.50;;;33.70;;
21519;SDS011;10921;53.614;9.882;2022-08-01T05:35:08;36.53;;;33.13;;
21519;SDS011;10921;53.614;9.882;2022-08-01T05:37:34;36.78;;;33.22;;
21519;SDS011;10921;53.614;9.882;2022-08-01T05:40:01;35.63;;;32.13;;
21519;SDS011;10921;53.614;9.882;2022-08-01T05:42:28;34.30;;;31.15;;
21519;SDS011;10921;53.614;9.882;2022-08-01T05:44:54;35.38;;;31.90;;
21519;SDS011;10921;53.614;9.882;2022-08-01T05:47:21;34.83;;;31.77;;
21519;SDS011;10921;53.614;9.882;2022-08-01T05:49:47;34.35;;;31.05;;
21519;SDS011;10921;53.614;9.882;2022-08-01T05:52:14;36.70;;;33.00;;
21519;SDS011;10921;53.614;9.882;2022-08-01T05:54:40;34.92;;;31.77;;
21519;SDS011;10921;53.614;9.882;2022-08-01T05:57:07;36.47;;;33.10;;
21519;SDS011;10921;53.614;9.882;2022-08-01T05:59:33;35.30;;;31.98;;
21519;SDS011;10921;53.614;9.882;2022-08-01T06:02:00;35.75;;;32.30;;
21519;SDS011;10921;53.614;9.882;2022-08-01T06:04:27;34.55;;;31.13;;
21519;SDS011;10921;53.614;9.882;2022-08-01T06:06:53;33.67;;;30.23;;
21519;SDS011;10921;53.614;9.882;2022-08-01T06:09:20;31.60;;;28.65;;
21519;SDS011;10921;53.614;9.882;2022-08-01T06:11:46;32.20;;;29.08;;
21519;SDS011;10921;53.614;9.882;2022-08-01T06:14:13;34.55;;;29.15;;
21519;SDS011;10921;53.614;9.882;2022-08-01T06:16:40;30.10;;;27.23;;
21519;SDS011;10921;53.614;9.882;2022-08-01T06:19:06;29.73;;;26.98;;
21519;SDS011;10921;53.614;9.882;2022-08-01T06:21:33;29.63;;;26.65;;
21519;SDS011;10921;53.614;9.882;2022-08-01T06:24:00;36.50;;;29.25;;
21519;SDS011;10921;53.614;9.882;2022-08-01T06:26:27;31.88;;;28.67;;
21519;SDS011;10921;53.614;9.882;2022-08-01T06:28:53;31.02;;;27.98;;
21519;SDS011;10921;53.614;9.882;2022-08-01T06:31:20;29.05;;;26.25;;
21519;SDS011;10921;53.614;9.882;2022-08-01T06:33:46;27.50;;;24.48;;
21519;SDS011;10921;53.614;9.882;2022-08-01T06:36:13;26.60;;;23.80;;
21519;SDS011;10921;53.614;9.882;2022-08-01T06:38:39;24.15;;;21.63;;
21519;SDS011;10921;53.614;9.882;2022-08-01T06:41:06;24.85;;;22.23;;
21519;SDS011;10921;53.614;9.882;2022-08-01T06:43:32;24.30;;;21.33;;
21519;SDS011;10921;53.614;9.882;2022-08-01T06:45:58;30.50;;;21.67;;
21519;SDS011;10921;53.614;9.882;2022-08-01T06:48:25;28.27;;;20.20;;
21519;SDS011;10921;53.614;9.882;2022-08-01T06:50:52;28.65;;;20.88;;
21519;SDS011;10921;53.614;9.882;2022-08-01T06:53:35;23.15;;;19.42;;
21519;SDS011;10921;53.614;9.882;2022-08-01T06:56:02;20.95;;;17.85;;
21519;SDS011;10921;53.614;9.882;2022-08-01T06:58:30;24.02;;;17.58;;
21519;SDS011;10921;53.614;9.882;2022-08-01T07:00:57;21.42;;;16.25;;
21519;SDS011;10921;53.614;9.882;2022-08-01T07:03:24;22.65;;;16.42;;
21519;SDS011;10921;53.614;9.882;2022-08-01T07:05:52;23.27;;;15.82;;
21519;SDS011;10921;53.614;9.882;2022-08-01T07:08:19;27.33;;;16.15;;
21519;SDS011;10921;53.614;9.882;2022-08-01T07:10:47;26.92;;;16.02;;
21519;SDS011;10921;53.614;9.882;2022-08-01T07:13:13;22.75;;;16.50;;
21519;SDS011;10921;53.614;9.882;2022-08-01T07:15:42;25.90;;;16.60;;
21519;SDS011;10921;53.614;9.882;2022-08-01T07:18:09;22.95;;;15.68;;
21519;SDS011;10921;53.614;9.882;2022-08-01T07:20:36;24.35;;;16.13;;
21519;SDS011;10921;53.614;9.882;2022-08-01T07:23:18;36.25;;;17.17;;
21519;SDS011;10921;53.614;9.882;2022-08-01T07:25:47;30.85;;;16.42;;
21519;SDS011;10921;53.614;9.882;2022-08-01T07:28:18;24.15;;;13.73;;
21519;SDS011;10921;53.614;9.882;2022-08-01T07:30:45;25.45;;;13.07;;
21519;SDS011;10921;53.614;9.882;2022-08-01T07:33:12;24.63;;;12.95;;
21519;SDS011;10921;53.614;9.882;2022-08-01T07:35:39;23.70;;;12.23;;
21519;SDS011;10921;53.614;9.882;2022-08-01T07:38:06;21.98;;;12.07;;
21519;SDS011;10921;53.614;9.882;2022-08-01T07:40:37;25.30;;;11.80;;
21519;SDS011;10921;53.614;9.882;2022-08-01T07:43:04;19.98;;;11.00;;
21519;SDS011;10921;53.614;9.882;2022-08-01T07:45:31;21.23;;;11.20;;
21519;SDS011;10921;53.614;9.882;2022-08-01T07:48:02;19.85;;;10.90;;
21519;SDS011;10921;53.614;9.882;2022-08-01T07:50:34;16.83;;;10.95;;
21519;SDS011;10921;53.614;9.882;2022-08-01T07:53:00;19.60;;;10.10;;
21519;SDS011;10921;53.614;9.882;2022-08-01T07:55:28;19.88;;;10.18;;
21519;SDS011;10921;53.614;9.882;2022-08-01T07:57:55;19.05;;;10.70;;
21519;SDS011;10921;53.614;9.882;2022-08-01T08:00:21;17.23;;;10.45;;
21519;SDS011;10921;53.614;9.882;2022-08-01T08:02:48;16.45;;;10.25;;
21519;SDS011;10921;53.614;9.882;2022-08-01T08:05:14;21.05;;;10.18;;
21519;SDS011;10921;53.614;9.882;2022-08-01T08:08:04;16.60;;;10.32;;
21519;SDS011;10921;53.614;9.882;2022-08-01T08:10:32;14.52;;;9.95;;
21519;SDS011;10921;53.614;9.882;2022-08-01T08:12:59;21.23;;;10.38;;
21519;SDS011;10921;53.614;9.882;2022-08-01T08:15:27;19.40;;;10.43;;
21519;SDS011;10921;53.614;9.882;2022-08-01T08:17:54;23.23;;;10.80;;
21519;SDS011;10921;53.614;9.882;2022-08-01T08:20:21;14.10;;;9.70;;
21519;SDS011;10921;53.614;9.882;2022-08-01T08:22:51;17.52;;;9.98;;
21519;SDS011;10921;53.614;9.882;2022-08-01T08:25:17;19.15;;;10.90;;
21519;SDS011;10921;53.614;9.882;2022-08-01T08:27:48;19.58;;;10.52;;
21519;SDS011;10921;53.614;9.882;2022-08-01T08:30:14;22.30;;;11.00;;
21519;SDS011;10921;53.614;9.882;2022-08-01T08:32:41;14.95;;;9.80;;
21519;SDS011;10921;53.614;9.882;2022-08-01T08:35:08;18.92;;;10.52;;
21519;SDS011;10921;53.614;9.882;2022-08-01T08:37:37;16.52;;;10.27;;
21519;SDS011;10921;53.614;9.882;2022-08-01T08:40:12;19.55;;;10.75;;
21519;SDS011;10921;53.614;9.882;2022-08-01T08:42:41;16.60;;;10.30;;
21519;SDS011;10921;53.614;9.882;2022-08-01T08:45:08;16.15;;;10.20;;
21519;SDS011;10921;53.614;9.882;2022-08-01T08:47:37;13.20;;;8.95;;
21519;SDS011;10921;53.614;9.882;2022-08-01T08:50:05;17.02;;;9.20;;
21519;SDS011;10921;53.614;9.882;2022-08-01T08:52:33;14.23;;;9.27;;
21519;SDS011;10921;53.614;9.882;2022-08-01T08:55:04;17.30;;;10.00;;
21519;SDS011;10921;53.614;9.882;2022-08-01T08:57:31;15.25;;;9.50;;
21519;SDS011;10921;53.614;9.882;2022-08-01T08:59:58;15.70;;;9.45;;
21519;SDS011;10921;53.614;9.882;2022-08-01T09:02:25;14.10;;;9.55;;
21519;SDS011;10921;53.614;9.882;2022-08-01T09:04:51;13.75;;;8.98;;
21519;SDS011;10921;53.614;9.882;2022-08-01T09:07:18;24.38;;;10.27;;
21519;SDS011;10921;53.614;9.882;2022-08-01T09:09:45;20.02;;;10.45;;
21519;SDS011;10921;53.614;9.882;2022-08-01T09:12:18;19.58;;;10.70;;
21519;SDS011;10921;53.614;9.882;2022-08-01T09:14:46;20.15;;;10.27;;
21519;SDS011;10921;53.614;9.882;2022-08-01T09:17:13;14.10;;;9.52;;
21519;SDS011;10921;53.614;9.882;2022-08-01T09:19:44;16.05;;;9.57;;
21519;SDS011;10921;53.614;9.882;2022-08-01T09:22:14;18.73;;;10.45;;
21519;SDS011;10921;53.614;9.882;2022-08-01T09:27:34;19.63;;;9.88;;
21519;SDS011;10921;53.614;9.882;2022-08-01T09:32:52;20.35;;;10.43;;
21519;SDS011;10921;53.614;9.882;2022-08-01T09:35:36;20.83;;;9.77;;
21519;SDS011;10921;53.614;9.882;2022-08-01T09:38:19;23.13;;;10.60;;
21519;SDS011;10921;53.614;9.882;2022-08-01T09:43:22;17.42;;;9.88;;
21519;SDS011;10921;53.614;9.882;2022-08-01T09:45:52;21.38;;;10.30;;
21519;SDS011;10921;53.614;9.882;2022-08-01T09:48:20;22.40;;;10.15;;
21519;SDS011;10921;53.614;9.882;2022-08-01T09:50:53;20.23;;;10.18;;
21519;SDS011;10921;53.614;9.882;2022-08-01T09:53:39;13.68;;;8.80;;
21519;SDS011;10921;53.614;9.882;2022-08-01T09:56:16;25.20;;;9.10;;
21519;SDS011;10921;53.614;9.882;2022-08-01T10:01:24;19.17;;;9.48;;
21519;SDS011;10921;53.614;9.882;2022-08-01T10:04:04;12.32;;;8.55;;
21519;SDS011;10921;53.614;9.882;2022-08-01T10:06:44;16.88;;;8.93;;
21519;SDS011;10921;53.614;9.882;2022-08-01T10:09:18;15.80;;;9.07;;
21519;SDS011;10921;53.614;9.882;2022-08-01T10:14:34;16.58;;;9.15;;
21519;SDS011;10921;53.614;9.882;2022-08-01T10:17:02;16.25;;;8.50;;
21519;SDS011;10921;53.614;9.882;2022-08-01T10:19:34;15.32;;;8.50;;
21519;SDS011;10921;53.614;9.882;2022-08-01T10:22:02;14.63;;;8.20;;
21519;SDS011;10921;53.614;9.882;2022-08-01T10:24:34;13.02;;;8.52;;
21519;SDS011;10921;53.614;9.882;2022-08-01T10:27:08;15.73;;;9.05;;
21519;SDS011;10921;53.614;9.882;2022-08-01T10:29:57;13.50;;;8.63;;
21519;SDS011;10921;53.614;9.882;2022-08-01T10:32:48;14.07;;;8.60;;
21519;SDS011;10921;53.614;9.882;2022-08-01T10:35:20;14.80;;;9.00;;
21519;SDS011;10921;53.614;9.882;2022-08-01T10:38:07;15.38;;;9.00;;
21519;SDS011;10921;53.614;9.882;2022-08-01T10:40:39;38.95;;;10.80;;
21519;SDS011;10921;53.614;9.882;2022-08-01T10:43:06;17.85;;;9.20;;
21519;SDS011;10921;53.614;9.882;2022-08-01T10:45:35;16.95;;;9.23;;
21519;SDS011;10921;53.614;9.882;2022-08-01T10:50:46;14.85;;;8.85;;
21519;SDS011;10921;53.614;9.882;2022-08-01T10:58:28;18.50;;;8.80;;
21519;SDS011;10921;53.614;9.882;2022-08-01T11:09:38;14.60;;;9.15;;
21519;SDS011;10921;53.614;9.882;2022-08-01T11:17:35;14.30;;;8.48;;
21519;SDS011;10921;53.614;9.882;2022-08-01T11:20:22;11.25;;;8.10;;
21519;SDS011;10921;53.614;9.882;2022-08-01T11:25:25;11.48;;;8.68;;
21519;SDS011;10921;53.614;9.882;2022-08-01T11:31:24;14.68;;;8.70;;
21519;SDS011;10921;53.614;9.882;2022-08-01T11:38:43;11.77;;;8.18;;
21519;SDS011;10921;53.614;9.882;2022-08-01T11:41:39;13.13;;;8.40;;
21519;SDS011;10921;53.614;9.882;2022-08-01T11:44:17;10.80;;;8.50;;
21519;SDS011;10921;53.614;9.882;2022-08-01T11:55:06;10.95;;;8.63;;
21519;SDS011;10921;53.614;9.882;2022-08-01T11:57:37;10.98;;;7.90;;
21519;SDS011;10921;53.614;9.882;2022-08-01T12:00:10;13.20;;;8.35;;
21519;SDS011;10921;53.614;9.882;2022-08-01T12:02:41;9.90;;;7.75;;
21519;SDS011;10921;53.614;9.882;2022-08-01T12:05:12;12.27;;;7.82;;
21519;SDS011;10921;53.614;9.882;2022-08-01T12:07:41;11.70;;;7.60;;
21519;SDS011;10921;53.614;9.882;2022-08-01T12:10:09;16.35;;;8.55;;
21519;SDS011;10921;53.614;9.882;2022-08-01T12:12:44;10.75;;;7.82;;
21519;SDS011;10921;53.614;9.882;2022-08-01T12:15:23;13.52;;;8.23;;
21519;SDS011;10921;53.614;9.882;2022-08-01T12:17:55;14.05;;;8.50;;
21519;SDS011;10921;53.614;9.882;2022-08-01T12:20:26;15.90;;;8.82;;
21519;SDS011;10921;53.614;9.882;2022-08-01T12:22:56;15.27;;;7.80;;
21519;SDS011;10921;53.614;9.882;2022-08-01T12:25:24;13.88;;;8.23;;
21519;SDS011;10921;53.614;9.882;2022-08-01T12:27:51;12.52;;;8.40;;
21519;SDS011;10921;53.614;9.882;2022-08-01T12:30:22;13.25;;;8.63;;
21519;SDS011;10921;53.614;9.882;2022-08-01T12:32:50;12.43;;;8.10;;
21519;SDS011;10921;53.614;9.882;2022-08-01T12:35:19;20.70;;;8.18;;
21519;SDS011;10921;53.614;9.882;2022-08-01T12:37:50;15.70;;;8.73;;
21519;SDS011;10921;53.614;9.882;2022-08-01T12:42:57;10.80;;;8.63;;
21519;SDS011;10921;53.614;9.882;2022-08-01T12:45:29;12.27;;;8.60;;
21519;SDS011;10921;53.614;9.882;2022-08-01T12:47:59;12.77;;;8.90;;
21519;SDS011;10921;53.614;9.882;2022-08-01T12:50:28;12.50;;;8.88;;
21519;SDS011;10921;53.614;9.882;2022-08-01T12:52:56;12.95;;;8.90;;
21519;SDS011;10921;53.614;9.882;2022-08-01T12:55:24;13.57;;;8.68;;
21519;SDS011;10921;53.614;9.882;2022-08-01T12:58:18;11.40;;;8.13;;
21519;SDS011;10921;53.614;9.882;2022-08-01T13:00:46;17.85;;;8.38;;
21519;SDS011;10921;53.614;9.882;2022-08-01T13:03:16;14.38;;;9.23;;
21519;SDS011;10921;53.614;9.882;2022-08-01T13:08:18;12.57;;;8.30;;
21519;SDS011;10921;53.614;9.882;2022-08-01T13:10:49;14.73;;;8.75;;
21519;SDS011;10921;53.614;9.882;2022-08-01T13:13:17;11.70;;;8.85;;
21519;SDS011;10921;53.614;9.882;2022-08-01T13:16:02;12.73;;;9.10;;
21519;SDS011;10921;53.614;9.882;2022-08-01T13:18:31;15.82;;;9.55;;
21519;SDS011;10921;53.614;9.882;2022-08-01T13:23:59;15.60;;;9.32;;
21519;SDS011;10921;53.614;9.882;2022-08-01T13:29:17;8.77;;;7.97;;
21519;SDS011;10921;53.614;9.882;2022-08-01T13:31:46;15.20;;;8.90;;
21519;SDS011;10921;53.614;9.882;2022-08-01T13:34:14;12.32;;;9.10;;
21519;SDS011;10921;53.614;9.882;2022-08-01T13:36:41;14.00;;;8.85;;
21519;SDS011;10921;53.614;9.882;2022-08-01T13:39:14;12.85;;;8.23;;
21519;SDS011;10921;53.614;9.882;2022-08-01T13:41:59;15.10;;;8.30;;
21519;SDS011;10921;53.614;9.882;2022-08-01T13:44:25;14.05;;;8.20;;
21519;SDS011;10921;53.614;9.882;2022-08-01T13:46:52;9.70;;;8.05;;
21519;SDS011;10921;53.614;9.882;2022-08-01T13:49:19;13.82;;;8.35;;
21519;SDS011;10921;53.614;9.882;2022-08-01T13:51:48;8.82;;;8.00;;
21519;SDS011;10921;53.614;9.882;2022-08-01T13:54:16;13.88;;;8.90;;
21519;SDS011;10921;53.614;9.882;2022-08-01T13:56:42;13.40;;;8.50;;
21519;SDS011;10921;53.614;9.882;2022-08-01T13:59:09;13.40;;;8.57;;
21519;SDS011;10921;53.614;9.882;2022-08-01T14:01:35;15.48;;;8.77;;
21519;SDS011;10921;53.614;9.882;2022-08-01T14:04:02;10.13;;;8.48;;
21519;SDS011;10921;53.614;9.882;2022-08-01T14:06:30;9.73;;;8.40;;
21519;SDS011;10921;53.614;9.882;2022-08-01T14:08:57;11.95;;;8.27;;
21519;SDS011;10921;53.614;9.882;2022-08-01T14:11:26;11.77;;;8.55;;
21519;SDS011;10921;53.614;9.882;2022-08-01T14:14:02;11.85;;;7.90;;
21519;SDS011;10921;53.614;9.882;2022-08-01T14:16:29;13.32;;;8.57;;
21519;SDS011;10921;53.614;9.882;2022-08-01T14:18:55;11.23;;;8.35;;
21519;SDS011;10921;53.614;9.882;2022-08-01T14:21:22;17.48;;;9.18;;
21519;SDS011;10921;53.614;9.882;2022-08-01T14:23:48;11.70;;;8.18;;
21519;SDS011;10921;53.614;9.882;2022-08-01T14:26:15;14.00;;;9.10;;
21519;SDS011;10921;53.614;9.882;2022-08-01T14:28:41;9.68;;;8.18;;
21519;SDS011;10921;53.614;9.882;2022-08-01T14:31:08;14.68;;;8.88;;
21519;SDS011;10921;53.614;9.882;2022-08-01T14:33:34;14.90;;;8.82;;
21519;SDS011;10921;53.614;9.882;2022-08-01T14:36:01;11.48;;;8.05;;
21519;SDS011;10921;53.614;9.882;2022-08-01T14:38:48;12.25;;;8.02;;
21519;SDS011;10921;53.614;9.882;2022-08-01T14:41:15;15.70;;;8.07;;
21519;SDS011;10921;53.614;9.882;2022-08-01T14:43:41;12.52;;;8.13;;
21519;SDS011;10921;53.614;9.882;2022-08-01T14:46:08;13.93;;;8.25;;
21519;SDS011;10921;53.614;9.882;2022-08-01T14:48:36;11.18;;;8.10;;
21519;SDS011;10921;53.614;9.882;2022-08-01T14:51:03;11.63;;;8.10;;
21519;SDS011;10921;53.614;9.882;2022-08-01T14:53:30;14.25;;;8.32;;
21519;SDS011;10921;53.614;9.882;2022-08-01T14:56:01;11.57;;;8.38;;
21519;SDS011;10921;53.614;9.882;2022-08-01T14:58:31;15.70;;;8.25;;
21519;SDS011;10921;53.614;9.882;2022-08-01T15:00:57;12.60;;;8.30;;
21519;SDS011;10921;53.614;9.882;2022-08-01T15:03:25;13.30;;;7.70;;
21519;SDS011;10921;53.614;9.882;2022-08-01T15:05:51;21.02;;;8.63;;
21519;SDS011;10921;53.614;9.882;2022-08-01T15:08:18;26.98;;;9.10;;
21519;SDS011;10921;53.614;9.882;2022-08-01T15:10:44;19.83;;;9.10;;
21519;SDS011;10921;53.614;9.882;2022-08-01T15:13:11;19.23;;;8.40;;
21519;SDS011;10921;53.614;9.882;2022-08-01T15:15:37;14.55;;;8.30;;
21519;SDS011;10921;53.614;9.882;2022-08-01T15:18:04;15.07;;;8.30;;
21519;SDS011;10921;53.614;9.882;2022-08-01T15:20:31;13.00;;;8.30;;
21519;SDS011;10921;53.614;9.882;2022-08-01T15:22:58;14.18;;;8.43;;
21519;SDS011;10921;53.614;9.882;2022-08-01T15:25:25;15.95;;;8.40;;
21519;SDS011;10921;53.614;9.882;2022-08-01T15:28:05;18.13;;;7.95;;
21519;SDS011;10921;53.614;9.882;2022-08-01T15:30:32;14.23;;;7.90;;
21519;SDS011;10921;53.614;9.882;2022-08-01T15:32:59;14.25;;;8.40;;
21519;SDS011;10921;53.614;9.882;2022-08-01T15:35:25;14.93;;;8.48;;
21519;SDS011;10921;53.614;9.882;2022-08-01T15:37:52;18.00;;;8.35;;
21519;SDS011;10921;53.614;9.882;2022-08-01T15:40:18;12.43;;;7.80;;
21519;SDS011;10921;53.614;9.882;2022-08-01T15:42:45;16.90;;;8.57;;
21519;SDS011;10921;53.614;9.882;2022-08-01T15:45:12;10.07;;;8.48;;
21519;SDS011;10921;53.614;9.882;2022-08-01T15:48:02;11.73;;;8.05;;
21519;SDS011;10921;53.614;9.882;2022-08-01T15:50:28;16.33;;;8.70;;
21519;SDS011;10921;53.614;9.882;2022-08-01T15:52:55;10.57;;;7.78;;
21519;SDS011;10921;53.614;9.882;2022-08-01T15:55:22;13.73;;;8.35;;
21519;SDS011;10921;53.614;9.882;2022-08-01T15:57:48;16.08;;;8.82;;
21519;SDS011;10921;53.614;9.882;2022-08-01T16:00:15;20.77;;;9.93;;
21519;SDS011;10921;53.614;9.882;2022-08-01T16:02:41;18.00;;;9.90;;
21519;SDS011;10921;53.614;9.882;2022-08-01T16:05:08;23.52;;;10.27;;